Terminal Aerodrome Forecast
Issued by NWS New Orleans/Baton Rouge, LA

Home | Current Version | Previous Version | Text Only | Print | Product List | Glossary On
Versions: 1 2 3 4 5 6 7 8 9 10 11 12 13 14
000
FTUS44 KLIX 300500
TAFBTR
TAF
KBTR 300526Z 3006/0106 00000KT P6SM SKC
     FM300900 00000KT 6SM BR SCT050
      TEMPO 3009/3013 4SM BR
     FM301500 10005KT P6SM SCT040=

USA.gov is the U.S. government's official web portal to all federal, state and local government web resources and services.